Time;durP1;ratioP1;P1;durP2;ratioP2;P2;SDS_P1;SDS_P2;PMS_P1;PMS_P2;Temp;Humidity;BMP_temperature;BMP_pressure;BME280_temperature;BME280_humidity;BME280_pressure;Samples;Min_cycle;Max_cycle;Signal;HPM_P1;HPM_P2
2021/09/19 00:01:27;;;;;;;14.60;11.10;;;;;;;;;;5023142;28;20074;-63
2021/09/19 00:03:52;;;;;;;17.30;12.73;;;;;;;;;;5024204;28;20484;-65
2021/09/19 00:06:18;;;;;;;16.08;11.77;;;;;;;;;;5019492;28;20120;-65
2021/09/19 00:08:43;;;;;;;16.42;11.20;;;;;;;;;;5019158;28;20032;-65
2021/09/19 00:11:08;;;;;;;14.68;10.73;;;;;;;;;;5022945;28;20516;-64
2021/09/19 00:13:33;;;;;;;15.57;12.20;;;;;;;;;;5023352;28;20112;-64
2021/09/19 00:15:58;;;;;;;16.70;12.50;;;;;;;;;;5023751;28;20087;-66
2021/09/19 00:18:24;;;;;;;17.63;12.60;;;;;;;;;;5026879;28;20021;-64
2021/09/19 00:20:49;;;;;;;15.27;11.75;;;;;;;;;;5027430;28;20105;-64
2021/09/19 00:23:14;;;;;;;14.38;11.45;;;;;;;;;;5018904;28;20014;-64
2021/09/19 00:25:40;;;;;;;17.85;11.82;;;;;;;;;;5024744;28;20112;-65
2021/09/19 00:28:05;;;;;;;15.13;11.32;;;;;;;;;;5023865;28;20112;-64
2021/09/19 00:30:31;;;;;;;15.48;11.48;;;;;;;;;;5025004;28;20017;-64
2021/09/19 00:32:56;;;;;;;17.00;11.98;;;;;;;;;;5021839;28;20469;-64
2021/09/19 00:35:21;;;;;;;17.25;12.48;;;;;;;;;;5018055;28;20038;-64
2021/09/19 00:37:46;;;;;;;15.55;11.25;;;;;;;;;;5022812;28;20540;-64
2021/09/19 00:40:12;;;;;;;15.45;11.18;;;;;;;;;;5021322;28;20064;-64
2021/09/19 00:42:38;;;;;;;15.20;11.38;;;;;;;;;;5027504;28;20160;-64
2021/09/19 00:45:05;;;;;;;16.35;12.40;;;;;;;;;;5016669;28;20109;-64
2021/09/19 00:47:30;;;;;;;15.38;11.35;;;;;;;;;;5022379;28;20029;-64
2021/09/19 00:49:55;;;;;;;15.70;10.98;;;;;;;;;;5017746;28;20021;-64
2021/09/19 00:52:20;;;;;;;16.08;11.27;;;;;;;;;;5021464;28;20032;-64
2021/09/19 00:54:47;;;;;;;16.30;11.50;;;;;;;;;;5019793;28;20385;-65
2021/09/19 00:57:14;;;;;;;16.35;11.18;;;;;;;;;;5022191;28;20021;-63
2021/09/19 00:59:40;;;;;;;17.20;12.23;;;;;;;;;;5021940;28;20485;-64
2021/09/19 01:02:05;;;;;;;19.45;13.23;;;;;;;;;;5020945;28;20036;-64
2021/09/19 01:04:30;;;;;;;16.13;12.30;;;;;;;;;;5025992;28;20036;-64
2021/09/19 01:06:56;;;;;;;17.55;12.25;;;;;;;;;;5015099;28;20470;-64
2021/09/19 01:09:21;;;;;;;18.50;13.50;;;;;;;;;;5019200;28;20523;-64
2021/09/19 01:11:47;;;;;;;22.73;15.50;;;;;;;;;;5021758;28;20033;-63
2021/09/19 01:14:14;;;;;;;16.58;12.90;;;;;;;;;;5024126;28;20096;-64
2021/09/19 01:16:39;;;;;;;17.67;12.95;;;;;;;;;;5023387;28;20056;-65
2021/09/19 01:19:08;;;;;;;17.55;12.48;;;;;;;;;;5024329;28;20534;-64
2021/09/19 01:21:34;;;;;;;16.42;11.52;;;;;;;;;;5019060;28;20025;-63
2021/09/19 01:24:02;;;;;;;16.20;12.27;;;;;;;;;;5020976;28;20044;-64
2021/09/19 01:26:28;;;;;;;18.55;13.20;;;;;;;;;;5024982;28;20112;-65
2021/09/19 01:28:54;;;;;;;15.43;11.23;;;;;;;;;;5022361;28;20110;-64
2021/09/19 01:31:19;;;;;;;17.20;12.23;;;;;;;;;;5018172;28;20017;-64
2021/09/19 01:33:45;;;;;;;18.33;13.43;;;;;;;;;;5023248;28;20134;-64
2021/09/19 01:36:11;;;;;;;17.00;13.13;;;;;;;;;;5022825;28;20030;-64
2021/09/19 01:38:36;;;;;;;16.58;12.68;;;;;;;;;;5030231;28;20030;-65
2021/09/19 01:41:01;;;;;;;17.40;12.70;;;;;;;;;;5022323;28;20049;-64
2021/09/19 01:43:26;;;;;;;16.45;12.32;;;;;;;;;;5025395;28;20120;-64
2021/09/19 01:45:51;;;;;;;19.05;13.63;;;;;;;;;;5025614;28;20461;-64
2021/09/19 01:48:17;;;;;;;17.08;12.30;;;;;;;;;;5028836;28;20018;-64
2021/09/19 01:50:42;;;;;;;15.30;11.50;;;;;;;;;;5022843;28;20477;-65
2021/09/19 01:53:07;;;;;;;16.60;12.60;;;;;;;;;;5030352;28;20026;-65
2021/09/19 01:55:33;;;;;;;17.15;12.00;;;;;;;;;;5024716;28;20468;-64
2021/09/19 01:57:58;;;;;;;16.25;12.57;;;;;;;;;;5018865;28;20116;-64
2021/09/19 02:00:24;;;;;;;16.77;12.73;;;;;;;;;;5028436;28;20132;-64
2021/09/19 02:02:49;;;;;;;16.67;12.98;;;;;;;;;;5027250;28;20621;-65
2021/09/19 02:05:14;;;;;;;18.65;13.40;;;;;;;;;;5028950;28;20072;-65
2021/09/19 02:07:40;;;;;;;16.35;12.57;;;;;;;;;;5028018;28;20021;-64
2021/09/19 02:10:06;;;;;;;19.23;13.65;;;;;;;;;;5030616;28;20026;-65
2021/09/19 02:12:32;;;;;;;20.63;14.93;;;;;;;;;;5021827;28;20025;-64
2021/09/19 02:14:58;;;;;;;19.98;14.35;;;;;;;;;;5022075;28;20464;-64
2021/09/19 02:17:23;;;;;;;20.35;13.52;;;;;;;;;;5024640;28;20101;-64
2021/09/19 02:19:48;;;;;;;17.67;13.35;;;;;;;;;;5024181;28;20751;-64
2021/09/19 02:22:13;;;;;;;16.67;12.75;;;;;;;;;;5021177;28;20025;-64
2021/09/19 02:24:39;;;;;;;16.25;12.40;;;;;;;;;;5018374;28;20845;-63
2021/09/19 02:27:04;;;;;;;17.20;11.45;;;;;;;;;;5026332;28;20036;-65
2021/09/19 02:29:30;;;;;;;17.38;12.95;;;;;;;;;;5028295;28;20021;-64
2021/09/19 02:31:55;;;;;;;18.80;13.40;;;;;;;;;;5028562;28;20034;-64
2021/09/19 02:34:20;;;;;;;16.55;12.52;;;;;;;;;;5021811;28;20381;-64
2021/09/19 02:36:45;;;;;;;18.83;13.23;;;;;;;;;;5023457;28;20363;-64
2021/09/19 02:39:11;;;;;;;16.67;12.43;;;;;;;;;;5027553;28;20481;-65
2021/09/19 02:41:36;;;;;;;16.23;11.57;;;;;;;;;;5023234;28;20053;-64
2021/09/19 02:44:02;;;;;;;17.30;13.35;;;;;;;;;;5026441;28;20397;-64
2021/09/19 02:46:27;;;;;;;17.63;13.20;;;;;;;;;;5024212;28;20176;-64
2021/09/19 02:48:53;;;;;;;16.45;12.80;;;;;;;;;;5026636;28;20034;-65
2021/09/19 02:51:18;;;;;;;19.25;13.38;;;;;;;;;;5025618;28;20496;-63
2021/09/19 02:53:43;;;;;;;16.33;12.57;;;;;;;;;;5028039;28;20018;-64
2021/09/19 02:56:08;;;;;;;17.27;12.75;;;;;;;;;;5029573;28;20045;-64
2021/09/19 02:58:34;;;;;;;15.75;11.90;;;;;;;;;;5026949;28;20029;-63
2021/09/19 03:01:00;;;;;;;16.98;12.40;;;;;;;;;;5024468;28;20080;-65
2021/09/19 03:03:25;;;;;;;18.15;13.15;;;;;;;;;;5026795;28;20731;-64
2021/09/19 03:05:50;;;;;;;18.17;12.75;;;;;;;;;;5026267;28;20022;-65
2021/09/19 03:08:15;;;;;;;18.52;13.40;;;;;;;;;;5024033;28;20623;-64
2021/09/19 03:10:41;;;;;;;20.42;14.43;;;;;;;;;;5027460;28;20053;-64
2021/09/19 03:13:06;;;;;;;19.23;13.23;;;;;;;;;;5026582;28;20083;-64
2021/09/19 03:15:31;;;;;;;17.17;12.35;;;;;;;;;;5021663;28;20156;-65
2021/09/19 03:17:57;;;;;;;18.42;13.00;;;;;;;;;;5026346;28;20026;-63
2021/09/19 03:20:22;;;;;;;19.63;14.75;;;;;;;;;;5018587;28;20025;-64
2021/09/19 03:22:47;;;;;;;19.73;13.10;;;;;;;;;;5022513;28;20116;-65
2021/09/19 03:25:13;;;;;;;19.13;12.85;;;;;;;;;;5020875;28;20465;-64
2021/09/19 03:27:38;;;;;;;17.88;12.50;;;;;;;;;;5027672;28;20026;-64
2021/09/19 03:30:05;;;;;;;17.20;11.57;;;;;;;;;;5025519;28;20508;-63
2021/09/19 03:32:30;;;;;;;17.17;12.65;;;;;;;;;;5025810;28;20374;-64
2021/09/19 03:34:55;;;;;;;16.30;11.82;;;;;;;;;;5028101;28;20033;-64
2021/09/19 03:37:20;;;;;;;21.13;13.45;;;;;;;;;;5026226;28;20041;-63
2021/09/19 03:39:46;;;;;;;19.52;13.35;;;;;;;;;;5027911;28;20040;-64
2021/09/19 03:42:11;;;;;;;15.82;12.55;;;;;;;;;;5023985;28;20451;-64
2021/09/19 03:44:36;;;;;;;16.40;12.63;;;;;;;;;;5023728;28;20046;-64
2021/09/19 03:47:01;;;;;;;16.48;12.13;;;;;;;;;;5021345;28;20029;-64
2021/09/19 03:49:27;;;;;;;18.30;12.27;;;;;;;;;;5023247;28;20436;-64
2021/09/19 03:51:52;;;;;;;17.90;12.55;;;;;;;;;;5028244;28;20048;-64
2021/09/19 03:54:17;;;;;;;20.83;14.07;;;;;;;;;;5021514;28;20048;-63
2021/09/19 03:56:42;;;;;;;19.80;13.93;;;;;;;;;;5027022;28;20508;-64
2021/09/19 03:59:08;;;;;;;22.88;16.00;;;;;;;;;;5027282;28;20067;-64
2021/09/19 04:01:33;;;;;;;24.95;17.75;;;;;;;;;;5023710;28;20034;-64
2021/09/19 04:03:58;;;;;;;24.80;17.10;;;;;;;;;;5018365;28;20025;-65
2021/09/19 04:06:24;;;;;;;24.27;16.48;;;;;;;;;;5023129;28;20060;-64
2021/09/19 04:08:49;;;;;;;25.92;16.85;;;;;;;;;;5022707;28;20029;-64
2021/09/19 04:11:14;;;;;;;25.05;17.90;;;;;;;;;;5022463;28;20074;-64
2021/09/19 04:13:39;;;;;;;28.25;18.73;;;;;;;;;;5025682;28;20040;-65
2021/09/19 04:16:04;;;;;;;27.70;18.63;;;;;;;;;;5018877;28;20029;-64
2021/09/19 04:18:30;;;;;;;28.08;18.48;;;;;;;;;;5025667;28;20380;-64
2021/09/19 04:20:55;;;;;;;31.05;20.08;;;;;;;;;;5019192;28;20450;-64
2021/09/19 04:23:22;;;;;;;29.65;20.33;;;;;;;;;;5025538;28;20033;-64
2021/09/19 04:25:47;;;;;;;29.90;20.17;;;;;;;;;;5026387;28;20029;-63
2021/09/19 04:28:13;;;;;;;32.03;19.88;;;;;;;;;;5023927;28;20124;-64
2021/09/19 04:30:38;;;;;;;29.92;18.36;;;;;;;;;;5024477;28;20456;-64
2021/09/19 04:33:03;;;;;;;28.23;18.48;;;;;;;;;;5025641;28;20041;-64
2021/09/19 04:35:28;;;;;;;28.75;18.23;;;;;;;;;;5027031;28;20037;-64
2021/09/19 04:37:53;;;;;;;24.40;17.40;;;;;;;;;;5023842;28;20022;-65
2021/09/19 04:40:18;;;;;;;26.83;16.38;;;;;;;;;;5024152;28;20390;-64
2021/09/19 04:42:44;;;;;;;23.05;15.93;;;;;;;;;;5024200;28;20046;-64
2021/09/19 04:45:09;;;;;;;21.52;14.85;;;;;;;;;;5022510;28;20061;-64
2021/09/19 04:47:34;;;;;;;22.23;16.20;;;;;;;;;;5023529;28;20013;-64
2021/09/19 04:50:00;;;;;;;22.23;15.90;;;;;;;;;;5021695;28;20551;-64
2021/09/19 04:52:25;;;;;;;24.15;15.82;;;;;;;;;;5018777;28;20841;-64
2021/09/19 04:54:50;;;;;;;22.55;15.48;;;;;;;;;;5020881;28;20323;-64
2021/09/19 04:57:15;;;;;;;23.70;15.90;;;;;;;;;;5025702;28;20025;-64
2021/09/19 04:59:40;;;;;;;21.73;15.07;;;;;;;;;;5022152;28;20032;-65
2021/09/19 05:02:06;;;;;;;22.83;15.45;;;;;;;;;;5020878;28;20057;-65
2021/09/19 05:04:31;;;;;;;23.45;15.88;;;;;;;;;;5025553;28;20052;-64
2021/09/19 05:06:56;;;;;;;24.23;15.38;;;;;;;;;;5018104;28;20045;-63
2021/09/19 05:09:21;;;;;;;23.40;15.75;;;;;;;;;;5020258;28;20022;-64
2021/09/19 05:11:47;;;;;;;21.92;15.32;;;;;;;;;;5025863;28;20120;-65
2021/09/19 05:14:12;;;;;;;23.42;16.83;;;;;;;;;;5031752;28;20037;-64
2021/09/19 05:16:38;;;;;;;21.98;14.88;;;;;;;;;;5028626;28;20049;-65
2021/09/19 05:19:04;;;;;;;24.38;15.70;;;;;;;;;;5024280;28;20026;-63
2021/09/19 05:21:29;;;;;;;25.77;16.50;;;;;;;;;;5026735;28;20022;-64
2021/09/19 05:23:54;;;;;;;22.30;14.85;;;;;;;;;;5028158;28;20040;-64
2021/09/19 05:26:19;;;;;;;21.98;14.93;;;;;;;;;;5025895;28;20431;-64
2021/09/19 05:28:44;;;;;;;21.92;15.13;;;;;;;;;;5027780;28;20458;-65
2021/09/19 05:31:12;;;;;;;21.77;14.65;;;;;;;;;;5018545;28;20144;-64
2021/09/19 05:33:37;;;;;;;26.10;17.15;;;;;;;;;;5026502;28;20029;-65
2021/09/19 05:36:03;;;;;;;25.70;17.65;;;;;;;;;;5046150;28;20632;-64
2021/09/19 05:38:28;;;;;;;21.52;14.98;;;;;;;;;;5031073;28;20026;-64
2021/09/19 05:40:53;;;;;;;23.95;15.38;;;;;;;;;;5025504;28;20029;-64
2021/09/19 05:43:18;;;;;;;20.80;14.32;;;;;;;;;;5023886;28;20037;-63
2021/09/19 05:45:43;;;;;;;20.23;13.40;;;;;;;;;;5023315;28;20476;-64
2021/09/19 05:48:08;;;;;;;18.60;12.98;;;;;;;;;;5023880;28;20117;-64
2021/09/19 05:50:35;;;;;;;19.58;12.95;;;;;;;;;;5022933;28;20075;-65
2021/09/19 05:53:00;;;;;;;17.17;12.10;;;;;;;;;;5029199;28;20029;-65
2021/09/19 05:55:25;;;;;;;14.63;11.27;;;;;;;;;;5025545;28;20046;-63
2021/09/19 05:57:50;;;;;;;14.10;11.23;;;;;;;;;;5022082;28;20091;-63
2021/09/19 06:00:16;;;;;;;15.70;11.25;;;;;;;;;;5024302;28;20029;-64
2021/09/19 06:02:41;;;;;;;14.52;11.45;;;;;;;;;;5024915;28;20022;-64
2021/09/19 06:05:06;;;;;;;16.60;12.05;;;;;;;;;;5028321;28;20028;-64
2021/09/19 06:07:32;;;;;;;15.82;11.80;;;;;;;;;;5029017;28;20060;-64
2021/09/19 06:09:57;;;;;;;15.77;11.60;;;;;;;;;;5025930;28;20025;-65
2021/09/19 06:12:22;;;;;;;18.15;12.50;;;;;;;;;;5027317;28;20021;-64
2021/09/19 06:14:49;;;;;;;18.00;13.02;;;;;;;;;;5017513;28;20382;-64
2021/09/19 06:17:14;;;;;;;20.13;14.43;;;;;;;;;;5025601;28;20037;-63
2021/09/19 06:19:40;;;;;;;19.38;13.88;;;;;;;;;;5026039;28;20025;-64
2021/09/19 06:22:05;;;;;;;19.08;14.07;;;;;;;;;;5019530;28;20030;-65
2021/09/19 06:24:30;;;;;;;17.83;13.57;;;;;;;;;;5024601;28;20290;-64
2021/09/19 06:27:00;;;;;;;19.95;14.50;;;;;;;;;;5027724;28;20513;-65
2021/09/19 06:29:25;;;;;;;18.55;13.35;;;;;;;;;;5025654;28;20083;-64
2021/09/19 06:31:51;;;;;;;20.42;13.93;;;;;;;;;;5026450;28;20026;-64
2021/09/19 06:34:16;;;;;;;19.33;14.15;;;;;;;;;;5029316;28;20105;-64
2021/09/19 06:36:41;;;;;;;18.58;13.60;;;;;;;;;;5025226;28;20120;-64
2021/09/19 06:39:06;;;;;;;19.35;13.45;;;;;;;;;;5028087;28;20029;-63
2021/09/19 06:41:32;;;;;;;18.50;13.48;;;;;;;;;;5023596;28;20065;-65
2021/09/19 06:43:57;;;;;;;17.25;12.57;;;;;;;;;;5026366;28;20026;-65
2021/09/19 06:46:23;;;;;;;18.17;14.10;;;;;;;;;;5018489;28;20025;-64
2021/09/19 06:48:48;;;;;;;21.10;14.77;;;;;;;;;;5024991;28;20051;-64
2021/09/19 06:51:13;;;;;;;20.38;14.32;;;;;;;;;;5020595;28;20116;-63
2021/09/19 06:53:39;;;;;;;18.67;14.50;;;;;;;;;;5028798;28;20025;-64
2021/09/19 06:56:04;;;;;;;19.52;14.35;;;;;;;;;;5018971;28;20032;-64
2021/09/19 06:58:30;;;;;;;19.42;13.25;;;;;;;;;;5029572;28;20025;-64
2021/09/19 07:00:56;;;;;;;17.27;12.88;;;;;;;;;;5023472;28;20036;-64
2021/09/19 07:03:21;;;;;;;17.75;13.60;;;;;;;;;;5030668;28;20025;-64
2021/09/19 07:05:46;;;;;;;18.67;13.82;;;;;;;;;;5026147;28;20207;-64
2021/09/19 07:08:11;;;;;;;17.90;13.33;;;;;;;;;;5022928;28;20014;-64
2021/09/19 07:10:36;;;;;;;20.60;13.68;;;;;;;;;;5023029;28;20788;-64
2021/09/19 07:13:01;;;;;;;18.35;12.82;;;;;;;;;;5024730;28;20018;-64
2021/09/19 07:15:27;;;;;;;19.23;13.75;;;;;;;;;;5019514;28;20037;-63
2021/09/19 07:17:52;;;;;;;17.63;13.35;;;;;;;;;;5027956;28;20025;-62
2021/09/19 07:20:17;;;;;;;19.08;13.65;;;;;;;;;;5026167;28;20354;-63
2021/09/19 07:22:42;;;;;;;17.87;13.50;;;;;;;;;;5015856;28;20109;-62
2021/09/19 07:25:10;;;;;;;17.92;12.60;;;;;;;;;;5022496;28;20790;-64
2021/09/19 07:27:35;;;;;;;19.42;13.27;;;;;;;;;;5024821;28;20060;-62
2021/09/19 07:30:00;;;;;;;14.77;10.40;;;;;;;;;;5025624;28;20484;-62
2021/09/19 07:32:25;;;;;;;15.13;11.40;;;;;;;;;;5022072;28;20033;-63
2021/09/19 07:34:51;;;;;;;14.20;11.13;;;;;;;;;;5023958;28;20025;-63
2021/09/19 07:37:16;;;;;;;14.73;10.00;;;;;;;;;;5021654;28;20409;-64
2021/09/19 07:39:42;;;;;;;14.85;9.27;;;;;;;;;;5028757;28;20351;-62
2021/09/19 07:42:07;;;;;;;16.23;9.98;;;;;;;;;;5025862;28;20445;-63
2021/09/19 07:44:34;;;;;;;14.90;10.05;;;;;;;;;;5028552;28;20029;-62
2021/09/19 07:47:00;;;;;;;14.82;11.27;;;;;;;;;;5026444;28;20112;-63
2021/09/19 07:49:25;;;;;;;15.40;11.57;;;;;;;;;;5019442;28;20422;-63
2021/09/19 07:51:50;;;;;;;15.68;11.98;;;;;;;;;;5024970;28;20022;-64
2021/09/19 07:54:15;;;;;;;16.58;11.05;;;;;;;;;;5029091;28;20014;-64
2021/09/19 07:56:41;;;;;;;14.50;11.13;;;;;;;;;;5029394;28;20025;-63
2021/09/19 07:59:06;;;;;;;14.75;10.60;;;;;;;;;;5023007;28;20022;-63
2021/09/19 08:01:32;;;;;;;14.68;11.40;;;;;;;;;;5029472;28;20144;-61
2021/09/19 08:03:57;;;;;;;14.85;11.63;;;;;;;;;;5021917;28;20100;-63
2021/09/19 08:06:22;;;;;;;16.08;12.25;;;;;;;;;;5026161;28;20144;-62
2021/09/19 08:08:50;;;;;;;16.35;11.80;;;;;;;;;;5029695;28;20388;-62
2021/09/19 08:11:16;;;;;;;15.55;10.52;;;;;;;;;;5029644;28;20025;-62
2021/09/19 08:13:41;;;;;;;14.32;11.45;;;;;;;;;;5022961;28;20114;-62
2021/09/19 08:16:06;;;;;;;16.45;12.07;;;;;;;;;;5027098;28;20048;-64
2021/09/19 08:18:32;;;;;;;14.63;12.52;;;;;;;;;;5028856;28;20032;-63
2021/09/19 08:20:57;;;;;;;14.98;12.60;;;;;;;;;;5029005;28;20043;-63
2021/09/19 08:23:22;;;;;;;15.27;12.30;;;;;;;;;;5027325;28;20033;-63
2021/09/19 08:25:47;;;;;;;16.02;12.10;;;;;;;;;;5028932;28;20021;-62
2021/09/19 08:28:13;;;;;;;16.95;12.15;;;;;;;;;;5025747;28;20030;-63
2021/09/19 08:30:38;;;;;;;16.20;12.68;;;;;;;;;;5042312;28;20064;-63
2021/09/19 08:33:03;;;;;;;18.95;13.70;;;;;;;;;;5021927;28;20041;-63
2021/09/19 08:35:28;;;;;;;18.85;13.88;;;;;;;;;;5028227;28;20041;-63
2021/09/19 08:37:54;;;;;;;20.90;14.45;;;;;;;;;;5027301;28;20071;-64
2021/09/19 08:40:19;;;;;;;21.20;15.45;;;;;;;;;;5023140;28;20021;-63
2021/09/19 08:42:44;;;;;;;22.83;17.15;;;;;;;;;;5027892;28;20038;-63
2021/09/19 08:45:10;;;;;;;21.42;16.23;;;;;;;;;;5025706;28;20029;-63
2021/09/19 08:47:36;;;;;;;20.65;14.88;;;;;;;;;;5027656;28;20417;-64
2021/09/19 08:50:05;;;;;;;21.23;16.30;;;;;;;;;;5027630;28;20676;-64
2021/09/19 08:52:30;;;;;;;21.35;15.80;;;;;;;;;;5028324;28;20021;-63
2021/09/19 08:54:55;;;;;;;20.77;16.23;;;;;;;;;;5022652;28;20029;-64
2021/09/19 08:57:21;;;;;;;21.42;15.95;;;;;;;;;;5028297;28;20025;-60
2021/09/19 08:59:47;;;;;;;25.20;18.50;;;;;;;;;;5020917;28;20127;-60
2021/09/19 09:02:14;;;;;;;24.08;17.65;;;;;;;;;;5028484;28;20323;-60
2021/09/19 09:04:40;;;;;;;23.85;18.73;;;;;;;;;;5026253;28;20018;-60
2021/09/19 09:07:06;;;;;;;26.38;18.83;;;;;;;;;;5028896;28;20049;-60
2021/09/19 09:09:31;;;;;;;25.38;15.98;;;;;;;;;;5022293;28;20488;-61
2021/09/19 09:12:00;;;;;;;24.13;19.75;;;;;;;;;;5020654;28;20029;-60
2021/09/19 09:14:26;;;;;;;27.40;17.30;;;;;;;;;;5028208;28;20033;-59
2021/09/19 09:16:51;;;;;;;26.40;19.45;;;;;;;;;;5028420;28;20453;-61
2021/09/19 09:19:17;;;;;;;30.02;22.63;;;;;;;;;;5027866;28;20030;-59
2021/09/19 09:21:43;;;;;;;29.02;20.40;;;;;;;;;;5025425;28;20029;-60
2021/09/19 09:24:14;;;;;;;28.75;21.27;;;;;;;;;;5027949;28;20029;-61
2021/09/19 09:26:40;;;;;;;28.27;19.67;;;;;;;;;;5028892;28;20017;-60
2021/09/19 09:29:07;;;;;;;29.70;21.95;;;;;;;;;;5025185;28;20056;-60
2021/09/19 09:31:45;;;;;;;27.23;20.10;;;;;;;;;;5023163;28;20025;-59
2021/09/19 09:34:11;;;;;;;30.15;20.30;;;;;;;;;;5023353;28;20424;-60
2021/09/19 09:36:38;;;;;;;28.65;22.00;;;;;;;;;;5017579;28;20038;-60
2021/09/19 09:39:20;;;;;;;27.67;19.27;;;;;;;;;;5024370;28;20431;-60
2021/09/19 09:41:45;;;;;;;28.05;21.08;;;;;;;;;;5028225;28;20045;-61
2021/09/19 09:44:27;;;;;;;29.40;21.48;;;;;;;;;;5018130;28;20029;-61
2021/09/19 09:46:52;;;;;;;30.00;22.63;;;;;;;;;;5028230;28;20025;-60
2021/09/19 09:49:21;;;;;;;28.25;20.00;;;;;;;;;;5025041;28;20044;-60
2021/09/19 09:51:47;;;;;;;30.05;19.52;;;;;;;;;;5026289;28;20025;-60
2021/09/19 09:54:15;;;;;;;28.55;22.75;;;;;;;;;;5025995;28;20375;-59
2021/09/19 09:56:43;;;;;;;29.13;21.20;;;;;;;;;;5028101;28;20038;-59
2021/09/19 09:59:09;;;;;;;31.52;22.13;;;;;;;;;;5024945;28;20671;-61
2021/09/19 10:01:34;;;;;;;27.52;20.40;;;;;;;;;;5031337;28;20542;-60
2021/09/19 10:04:00;;;;;;;28.85;21.38;;;;;;;;;;5025209;28;20083;-60
2021/09/19 10:06:25;;;;;;;29.67;22.13;;;;;;;;;;5028488;28;20033;-60
2021/09/19 10:08:50;;;;;;;26.58;17.92;;;;;;;;;;5029472;28;20044;-59
2021/09/19 10:11:15;;;;;;;26.17;19.77;;;;;;;;;;5027742;28;20064;-61
2021/09/19 10:13:44;;;;;;;25.27;19.02;;;;;;;;;;5029442;28;20567;-60
2021/09/19 10:16:10;;;;;;;24.90;18.75;;;;;;;;;;5028312;28;20461;-60
2021/09/19 10:18:35;;;;;;;20.42;16.23;;;;;;;;;;5029078;28;20021;-60
2021/09/19 10:21:02;;;;;;;20.67;16.67;;;;;;;;;;5031223;28;20068;-62
2021/09/19 10:23:29;;;;;;;18.92;13.18;;;;;;;;;;5028601;28;20048;-60
2021/09/19 10:25:54;;;;;;;15.43;12.38;;;;;;;;;;5024780;28;20114;-61
2021/09/19 10:28:21;;;;;;;15.38;11.50;;;;;;;;;;5030070;28;20060;-60
2021/09/19 10:31:04;;;;;;;14.85;11.25;;;;;;;;;;5031068;28;20083;-61
2021/09/19 10:33:37;;;;;;;13.15;9.57;;;;;;;;;;5028928;28;20036;-60
2021/09/19 10:36:02;;;;;;;14.63;10.55;;;;;;;;;;5023612;28;20042;-61
2021/09/19 10:38:37;;;;;;;17.63;11.88;;;;;;;;;;5024631;28;20028;-60
2021/09/19 10:41:13;;;;;;;13.73;11.10;;;;;;;;;;5021434;28;20061;-60
2021/09/19 10:43:49;;;;;;;14.90;10.07;;;;;;;;;;5022981;28;20095;-59
2021/09/19 10:46:33;;;;;;;13.30;9.73;;;;;;;;;;5025493;28;20063;-59
2021/09/19 10:49:14;;;;;;;13.82;10.20;;;;;;;;;;5021442;28;20029;-60
2021/09/19 10:52:05;;;;;;;14.40;11.60;;;;;;;;;;5024554;28;20044;-60
2021/09/19 10:54:49;;;;;;;17.50;12.15;;;;;;;;;;5019636;28;20033;-61
2021/09/19 10:57:15;;;;;;;14.68;10.25;;;;;;;;;;5023023;28;20137;-59
2021/09/19 10:59:59;;;;;;;16.00;12.73;;;;;;;;;;5023635;28;20030;-59
2021/09/19 11:02:28;;;;;;;15.43;9.98;;;;;;;;;;5020870;28;20103;-60
2021/09/19 11:05:13;;;;;;;13.95;11.40;;;;;;;;;;5023838;28;20112;-59
2021/09/19 11:07:40;;;;;;;15.45;11.98;;;;;;;;;;5022357;28;20119;-60
2021/09/19 11:10:07;;;;;;;15.43;11.38;;;;;;;;;;5028504;28;20068;-60
2021/09/19 11:12:43;;;;;;;15.80;12.10;;;;;;;;;;5023842;28;20041;-60
2021/09/19 11:15:11;;;;;;;13.82;10.07;;;;;;;;;;5029656;28;20104;-60
2021/09/19 11:17:42;;;;;;;15.50;11.45;;;;;;;;;;5022407;28;20031;-59
2021/09/19 11:20:10;;;;;;;15.10;11.75;;;;;;;;;;5021544;28;20025;-61
2021/09/19 11:22:35;;;;;;;15.73;11.13;;;;;;;;;;5029408;28;20053;-60
2021/09/19 11:25:02;;;;;;;15.05;12.48;;;;;;;;;;5026453;28;20840;-60
2021/09/19 11:27:30;;;;;;;13.43;9.93;;;;;;;;;;5024457;28;20109;-59
2021/09/19 11:29:56;;;;;;;13.52;10.77;;;;;;;;;;5021482;28;20480;-60
2021/09/19 11:32:21;;;;;;;11.90;10.45;;;;;;;;;;5025091;28;20030;-60
2021/09/19 11:34:47;;;;;;;14.77;10.48;;;;;;;;;;5027972;28;20458;-60
2021/09/19 11:37:12;;;;;;;12.82;10.52;;;;;;;;;;5027921;28;20037;-59
2021/09/19 11:39:38;;;;;;;12.38;8.38;;;;;;;;;;5028719;28;20096;-60
2021/09/19 11:42:04;;;;;;;12.38;9.55;;;;;;;;;;5044175;28;20045;-60
2021/09/19 11:44:30;;;;;;;13.07;9.38;;;;;;;;;;5029377;28;20018;-59
2021/09/19 11:46:55;;;;;;;10.83;9.70;;;;;;;;;;5018970;28;20044;-60
2021/09/19 11:49:20;;;;;;;11.07;8.98;;;;;;;;;;5027292;28;20658;-59
2021/09/19 11:51:46;;;;;;;9.95;8.82;;;;;;;;;;5026600;28;20086;-61
2021/09/19 11:54:13;;;;;;;10.18;8.95;;;;;;;;;;5025193;28;20021;-59
2021/09/19 11:56:40;;;;;;;9.15;7.95;;;;;;;;;;5026486;28;20473;-60
2021/09/19 11:59:05;;;;;;;8.60;7.35;;;;;;;;;;5026274;28;20025;-60
2021/09/19 12:01:30;;;;;;;11.18;8.35;;;;;;;;;;5023160;28;20587;-60
2021/09/19 12:04:04;;;;;;;11.23;8.38;;;;;;;;;;5025795;28;20025;-60
2021/09/19 12:06:29;;;;;;;9.70;7.88;;;;;;;;;;5018544;28;20048;-59
2021/09/19 12:08:54;;;;;;;9.15;6.85;;;;;;;;;;5028781;28;20474;-60
2021/09/19 12:11:19;;;;;;;9.30;7.80;;;;;;;;;;5026249;28;20033;-60
2021/09/19 12:13:49;;;;;;;11.77;7.90;;;;;;;;;;5028441;28;20017;-59
2021/09/19 12:16:15;;;;;;;11.77;8.82;;;;;;;;;;5023981;28;20033;-60
2021/09/19 12:18:42;;;;;;;11.43;8.20;;;;;;;;;;5020850;28;20194;-60
2021/09/19 12:21:10;;;;;;;8.73;6.45;;;;;;;;;;5020966;28;20467;-59
2021/09/19 12:23:40;;;;;;;9.95;8.05;;;;;;;;;;5026059;28;20026;-60
2021/09/19 12:26:05;;;;;;;;;;;;;;;;;;5023727;28;20028;-60
2021/09/19 12:28:31;;;;;;;8.95;7.20;;;;;;;;;;5023977;28;19909;-59
2021/09/19 12:30:56;;;;;;;8.48;7.25;;;;;;;;;;5026248;28;20036;-60
2021/09/19 12:33:21;;;;;;;9.30;7.72;;;;;;;;;;5024644;28;20105;-59
2021/09/19 12:35:47;;;;;;;9.13;7.15;;;;;;;;;;5025338;28;20515;-60
2021/09/19 12:38:14;;;;;;;9.48;7.18;;;;;;;;;;5019690;28;20037;-59
2021/09/19 12:40:40;;;;;;;10.43;7.38;;;;;;;;;;5022577;28;20710;-59
2021/09/19 12:43:15;;;;;;;8.88;7.30;;;;;;;;;;5022251;28;20041;-60
2021/09/19 12:45:48;;;;;;;8.80;7.30;;;;;;;;;;5025586;28;20029;-60
2021/09/19 12:48:13;;;;;;;10.23;8.00;;;;;;;;;;5027881;28;20389;-60
2021/09/19 12:50:39;;;;;;;8.73;7.00;;;;;;;;;;5024632;28;20017;-60
2021/09/19 12:53:04;;;;;;;10.13;7.35;;;;;;;;;;5024127;28;20323;-61
2021/09/19 12:55:30;;;;;;;8.98;6.40;;;;;;;;;;5024243;28;20040;-59
2021/09/19 12:57:55;;;;;;;8.68;6.80;;;;;;;;;;5027634;28;20025;-60
2021/09/19 13:00:23;;;;;;;8.27;7.27;;;;;;;;;;5027765;28;20029;-61
2021/09/19 13:02:57;;;;;;;9.05;7.10;;;;;;;;;;5027740;28;20353;-59
2021/09/19 13:05:22;;;;;;;9.05;7.22;;;;;;;;;;5026766;28;20217;-60
2021/09/19 13:07:47;;;;;;;9.30;7.63;;;;;;;;;;5026028;28;20112;-60
2021/09/19 13:10:13;;;;;;;7.93;6.73;;;;;;;;;;5026560;28;20061;-60
2021/09/19 13:12:38;;;;;;;8.47;6.60;;;;;;;;;;5015631;28;20280;-60
2021/09/19 13:15:03;;;;;;;6.90;6.03;;;;;;;;;;5024136;28;20288;-59
2021/09/19 13:17:29;;;;;;;7.65;5.90;;;;;;;;;;5026933;28;20279;-60
2021/09/19 13:19:54;;;;;;;8.13;5.97;;;;;;;;;;5028121;28;20026;-60
2021/09/19 13:22:19;;;;;;;8.60;6.50;;;;;;;;;;5019624;28;20284;-60
2021/09/19 13:24:44;;;;;;;9.00;7.17;;;;;;;;;;5027070;28;20025;-60
2021/09/19 13:27:09;;;;;;;10.77;7.00;;;;;;;;;;5024562;28;20293;-60
2021/09/19 13:29:34;;;;;;;7.90;6.10;;;;;;;;;;5023152;28;20313;-59
2021/09/19 13:31:59;;;;;;;6.97;5.35;;;;;;;;;;5021146;28;20284;-60
2021/09/19 13:34:25;;;;;;;6.60;5.43;;;;;;;;;;5025226;28;20063;-61
2021/09/19 13:36:50;;;;;;;7.68;6.20;;;;;;;;;;5024377;28;20295;-59
2021/09/19 13:39:16;;;;;;;6.50;5.53;;;;;;;;;;5029493;28;20044;-59
2021/09/19 13:41:41;;;;;;;8.00;5.77;;;;;;;;;;5021116;28;20105;-59
2021/09/19 13:44:06;;;;;;;6.35;5.53;;;;;;;;;;5026667;28;20730;-60
2021/09/19 13:46:31;;;;;;;6.32;4.82;;;;;;;;;;5031102;28;20068;-60
2021/09/19 13:48:57;;;;;;;6.72;4.93;;;;;;;;;;5020610;28;20025;-60
2021/09/19 13:51:22;;;;;;;7.13;4.38;;;;;;;;;;5022733;28;20112;-59
2021/09/19 13:53:47;;;;;;;8.82;5.03;;;;;;;;;;5029697;28;20464;-60
2021/09/19 13:56:13;;;;;;;7.20;5.32;;;;;;;;;;5029662;28;20030;-60
2021/09/19 13:58:38;;;;;;;5.50;4.82;;;;;;;;;;5025045;28;20489;-60
2021/09/19 14:01:03;;;;;;;5.68;4.93;;;;;;;;;;5026383;28;20069;-61
2021/09/19 14:03:29;;;;;;;4.60;4.00;;;;;;;;;;5027800;28;20118;-62
2021/09/19 14:05:55;;;;;;;5.57;4.75;;;;;;;;;;5028841;28;20461;-61
2021/09/19 14:08:20;;;;;;;5.47;4.70;;;;;;;;;;5028854;28;20365;-59
2021/09/19 14:10:45;;;;;;;5.60;4.50;;;;;;;;;;5027942;28;20041;-61
2021/09/19 14:13:10;;;;;;;5.35;4.28;;;;;;;;;;5022643;28;20546;-62
2021/09/19 14:15:36;;;;;;;5.00;4.30;;;;;;;;;;5029175;28;20388;-63